sensor_id;sensor_type;location;lat;lon;timestamp;P1;durP1;ratioP1;P2;durP2;ratioP2
38226;SDS011;24026;49.446;8.576;2024-03-23T00:54:53;145.00;;;130.48;;
38226;SDS011;24026;49.446;8.576;2024-03-23T00:57:13;143.45;;;129.07;;
38226;SDS011;24026;49.446;8.576;2024-03-23T00:59:33;145.55;;;130.98;;
38226;SDS011;24026;49.446;8.576;2024-03-23T01:01:54;143.88;;;129.52;;
38226;SDS011;24026;49.446;8.576;2024-03-23T01:04:15;144.20;;;129.68;;
38226;SDS011;24026;49.446;8.576;2024-03-23T01:06:35;144.30;;;129.90;;
38226;SDS011;24026;49.446;8.576;2024-03-23T01:08:56;143.75;;;129.35;;
38226;SDS011;24026;49.446;8.576;2024-03-23T01:11:16;144.45;;;130.23;;
38226;SDS011;24026;49.446;8.576;2024-03-23T01:13:37;143.90;;;129.60;;
38226;SDS011;24026;49.446;8.576;2024-03-23T01:15:57;142.40;;;128.27;;
38226;SDS011;24026;49.446;8.576;2024-03-23T01:18:18;145.30;;;130.77;;
38226;SDS011;24026;49.446;8.576;2024-03-23T01:20:39;143.32;;;129.02;;
38226;SDS011;24026;49.446;8.576;2024-03-23T01:23:00;142.63;;;128.45;;
38226;SDS011;24026;49.446;8.576;2024-03-23T01:25:20;142.98;;;128.75;;
38226;SDS011;24026;49.446;8.576;2024-03-23T01:27:40;143.23;;;128.93;;
38226;SDS011;24026;49.446;8.576;2024-03-23T01:30:01;143.43;;;129.23;;
38226;SDS011;24026;49.446;8.576;2024-03-23T01:32:21;144.45;;;130.05;;
38226;SDS011;24026;49.446;8.576;2024-03-23T01:34:42;143.18;;;128.90;;
38226;SDS011;24026;49.446;8.576;2024-03-23T01:37:02;143.32;;;129.25;;
38226;SDS011;24026;49.446;8.576;2024-03-23T01:39:22;144.23;;;129.98;;
38226;SDS011;24026;49.446;8.576;2024-03-23T01:41:43;145.15;;;130.77;;
38226;SDS011;24026;49.446;8.576;2024-03-23T01:44:04;143.45;;;129.15;;
38226;SDS011;24026;49.446;8.576;2024-03-23T01:46:29;143.20;;;129.20;;
38226;SDS011;24026;49.446;8.576;2024-03-23T01:48:49;142.70;;;128.60;;
38226;SDS011;24026;49.446;8.576;2024-03-23T01:51:10;145.23;;;131.00;;
38226;SDS011;24026;49.446;8.576;2024-03-23T01:53:31;144.05;;;129.75;;
38226;SDS011;24026;49.446;8.576;2024-03-23T01:55:51;144.27;;;129.93;;
38226;SDS011;24026;49.446;8.576;2024-03-23T01:58:12;143.77;;;129.60;;
38226;SDS011;24026;49.446;8.576;2024-03-23T02:00:32;143.10;;;129.02;;
38226;SDS011;24026;49.446;8.576;2024-03-23T02:02:52;142.98;;;128.75;;
38226;SDS011;24026;49.446;8.576;2024-03-23T02:05:13;143.73;;;129.43;;
38226;SDS011;24026;49.446;8.576;2024-03-23T02:07:34;142.43;;;128.38;;
38226;SDS011;24026;49.446;8.576;2024-03-23T02:09:54;143.73;;;129.48;;
38226;SDS011;24026;49.446;8.576;2024-03-23T02:12:15;143.02;;;128.93;;
38226;SDS011;24026;49.446;8.576;2024-03-23T02:14:36;142.30;;;128.32;;
38226;SDS011;24026;49.446;8.576;2024-03-23T02:16:56;142.70;;;128.55;;
38226;SDS011;24026;49.446;8.576;2024-03-23T02:19:16;142.77;;;128.57;;
38226;SDS011;24026;49.446;8.576;2024-03-23T02:21:37;143.38;;;129.25;;
38226;SDS011;24026;49.446;8.576;2024-03-23T02:23:58;142.02;;;127.85;;
38226;SDS011;24026;49.446;8.576;2024-03-23T02:26:19;140.88;;;126.78;;
38226;SDS011;24026;49.446;8.576;2024-03-23T02:28:40;142.05;;;128.13;;
38226;SDS011;24026;49.446;8.576;2024-03-23T02:31:00;142.18;;;127.97;;
38226;SDS011;24026;49.446;8.576;2024-03-23T02:33:21;141.20;;;127.22;;
38226;SDS011;24026;49.446;8.576;2024-03-23T02:35:42;143.32;;;129.13;;
38226;SDS011;24026;49.446;8.576;2024-03-23T02:38:03;142.45;;;128.43;;
38226;SDS011;24026;49.446;8.576;2024-03-23T02:40:24;142.88;;;128.57;;
38226;SDS011;24026;49.446;8.576;2024-03-23T02:42:45;142.25;;;128.23;;
38226;SDS011;24026;49.446;8.576;2024-03-23T02:45:05;142.43;;;128.45;;
38226;SDS011;24026;49.446;8.576;2024-03-23T02:47:26;140.80;;;126.97;;
38226;SDS011;24026;49.446;8.576;2024-03-23T02:49:46;140.95;;;126.88;;
38226;SDS011;24026;49.446;8.576;2024-03-23T02:52:07;140.88;;;126.93;;
38226;SDS011;24026;49.446;8.576;2024-03-23T02:54:27;141.25;;;127.30;;
38226;SDS011;24026;49.446;8.576;2024-03-23T02:56:47;140.80;;;126.70;;
38226;SDS011;24026;49.446;8.576;2024-03-23T02:59:08;140.07;;;126.18;;
38226;SDS011;24026;49.446;8.576;2024-03-23T03:01:28;141.05;;;127.10;;
38226;SDS011;24026;49.446;8.576;2024-03-23T03:03:48;139.70;;;125.97;;
38226;SDS011;24026;49.446;8.576;2024-03-23T03:06:09;141.15;;;127.07;;
38226;SDS011;24026;49.446;8.576;2024-03-23T03:08:29;139.77;;;125.82;;
38226;SDS011;24026;49.446;8.576;2024-03-23T03:10:50;140.45;;;126.57;;
38226;SDS011;24026;49.446;8.576;2024-03-23T03:13:10;139.60;;;125.85;;
38226;SDS011;24026;49.446;8.576;2024-03-23T03:15:30;140.15;;;126.32;;
38226;SDS011;24026;49.446;8.576;2024-03-23T03:17:51;140.68;;;126.82;;
38226;SDS011;24026;49.446;8.576;2024-03-23T03:20:11;139.10;;;125.30;;
38226;SDS011;24026;49.446;8.576;2024-03-23T03:22:33;140.75;;;126.75;;
38226;SDS011;24026;49.446;8.576;2024-03-23T03:24:54;139.57;;;125.88;;
38226;SDS011;24026;49.446;8.576;2024-03-23T03:27:14;139.93;;;126.18;;
38226;SDS011;24026;49.446;8.576;2024-03-23T03:29:34;140.13;;;126.15;;
38226;SDS011;24026;49.446;8.576;2024-03-23T03:31:55;139.70;;;125.95;;
38226;SDS011;24026;49.446;8.576;2024-03-23T03:34:16;139.20;;;125.32;;
38226;SDS011;24026;49.446;8.576;2024-03-23T03:36:36;139.50;;;125.65;;
38226;SDS011;24026;49.446;8.576;2024-03-23T03:38:56;139.95;;;126.15;;
38226;SDS011;24026;49.446;8.576;2024-03-23T03:41:18;140.57;;;126.70;;
38226;SDS011;24026;49.446;8.576;2024-03-23T03:43:38;139.63;;;125.70;;
38226;SDS011;24026;49.446;8.576;2024-03-23T03:46:00;140.25;;;126.47;;
38226;SDS011;24026;49.446;8.576;2024-03-23T03:48:21;140.85;;;126.75;;
38226;SDS011;24026;49.446;8.576;2024-03-23T03:50:41;141.52;;;127.40;;
38226;SDS011;24026;49.446;8.576;2024-03-23T03:53:02;141.68;;;126.78;;
38226;SDS011;24026;49.446;8.576;2024-03-23T03:55:22;139.57;;;125.68;;
38226;SDS011;24026;49.446;8.576;2024-03-23T03:57:42;139.88;;;125.82;;
38226;SDS011;24026;49.446;8.576;2024-03-23T04:00:03;139.57;;;125.80;;
38226;SDS011;24026;49.446;8.576;2024-03-23T04:02:24;140.82;;;127.07;;
38226;SDS011;24026;49.446;8.576;2024-03-23T04:04:44;140.85;;;126.95;;
38226;SDS011;24026;49.446;8.576;2024-03-23T04:07:05;140.77;;;126.93;;
38226;SDS011;24026;49.446;8.576;2024-03-23T04:09:25;140.30;;;126.50;;
38226;SDS011;24026;49.446;8.576;2024-03-23T04:11:45;139.60;;;125.72;;
38226;SDS011;24026;49.446;8.576;2024-03-23T04:14:06;140.80;;;126.80;;
38226;SDS011;24026;49.446;8.576;2024-03-23T04:16:29;140.23;;;126.32;;
38226;SDS011;24026;49.446;8.576;2024-03-23T04:18:53;139.32;;;125.47;;
38226;SDS011;24026;49.446;8.576;2024-03-23T04:21:14;140.35;;;126.55;;
38226;SDS011;24026;49.446;8.576;2024-03-23T04:23:34;140.63;;;126.82;;
38226;SDS011;24026;49.446;8.576;2024-03-23T04:25:55;140.98;;;127.20;;
38226;SDS011;24026;49.446;8.576;2024-03-23T04:28:16;140.35;;;126.60;;
38226;SDS011;24026;49.446;8.576;2024-03-23T04:30:36;140.27;;;126.45;;
38226;SDS011;24026;49.446;8.576;2024-03-23T04:32:57;141.27;;;127.18;;
38226;SDS011;24026;49.446;8.576;2024-03-23T04:35:18;139.65;;;125.85;;
38226;SDS011;24026;49.446;8.576;2024-03-23T04:37:40;140.18;;;126.25;;
38226;SDS011;24026;49.446;8.576;2024-03-23T04:40:03;138.95;;;125.05;;
38226;SDS011;24026;49.446;8.576;2024-03-23T04:42:24;140.63;;;126.72;;
38226;SDS011;24026;49.446;8.576;2024-03-23T04:44:44;138.70;;;124.85;;
38226;SDS011;24026;49.446;8.576;2024-03-23T04:47:05;140.07;;;126.28;;
38226;SDS011;24026;49.446;8.576;2024-03-23T04:49:25;140.07;;;126.28;;
38226;SDS011;24026;49.446;8.576;2024-03-23T04:51:46;138.20;;;124.50;;
38226;SDS011;24026;49.446;8.576;2024-03-23T04:54:06;138.18;;;124.45;;
38226;SDS011;24026;49.446;8.576;2024-03-23T04:56:27;139.70;;;125.82;;
38226;SDS011;24026;49.446;8.576;2024-03-23T04:58:47;138.32;;;124.63;;
38226;SDS011;24026;49.446;8.576;2024-03-23T05:01:07;135.02;;;121.68;;
38226;SDS011;24026;49.446;8.576;2024-03-23T05:03:28;138.57;;;124.93;;
38226;SDS011;24026;49.446;8.576;2024-03-23T05:05:49;138.35;;;124.63;;
38226;SDS011;24026;49.446;8.576;2024-03-23T05:08:10;138.07;;;124.30;;
38226;SDS011;24026;49.446;8.576;2024-03-23T05:10:30;137.00;;;123.35;;
38226;SDS011;24026;49.446;8.576;2024-03-23T05:12:52;137.13;;;123.43;;
38226;SDS011;24026;49.446;8.576;2024-03-23T05:15:12;136.77;;;123.13;;
38226;SDS011;24026;49.446;8.576;2024-03-23T05:17:33;139.18;;;125.50;;
38226;SDS011;24026;49.446;8.576;2024-03-23T05:19:53;137.02;;;123.35;;
38226;SDS011;24026;49.446;8.576;2024-03-23T05:22:14;138.15;;;124.35;;
38226;SDS011;24026;49.446;8.576;2024-03-23T05:24:34;138.43;;;124.82;;
38226;SDS011;24026;49.446;8.576;2024-03-23T05:26:55;137.85;;;124.00;;
38226;SDS011;24026;49.446;8.576;2024-03-23T05:29:16;136.13;;;122.63;;
38226;SDS011;24026;49.446;8.576;2024-03-23T05:31:37;136.65;;;123.25;;
38226;SDS011;24026;49.446;8.576;2024-03-23T05:33:57;138.60;;;124.70;;
38226;SDS011;24026;49.446;8.576;2024-03-23T05:36:18;137.27;;;123.72;;
38226;SDS011;24026;49.446;8.576;2024-03-23T05:38:38;136.30;;;122.90;;
38226;SDS011;24026;49.446;8.576;2024-03-23T05:40:59;137.75;;;124.15;;
38226;SDS011;24026;49.446;8.576;2024-03-23T05:43:20;135.73;;;122.22;;
38226;SDS011;24026;49.446;8.576;2024-03-23T05:45:41;135.20;;;121.85;;
38226;SDS011;24026;49.446;8.576;2024-03-23T05:48:02;137.70;;;124.15;;
38226;SDS011;24026;49.446;8.576;2024-03-23T05:50:22;135.82;;;122.30;;
38226;SDS011;24026;49.446;8.576;2024-03-23T05:52:43;135.27;;;121.97;;
38226;SDS011;24026;49.446;8.576;2024-03-23T05:55:04;134.57;;;121.13;;
38226;SDS011;24026;49.446;8.576;2024-03-23T05:57:25;135.45;;;121.95;;
38226;SDS011;24026;49.446;8.576;2024-03-23T05:59:45;134.50;;;121.10;;
38226;SDS011;24026;49.446;8.576;2024-03-23T06:02:06;134.98;;;121.47;;
38226;SDS011;24026;49.446;8.576;2024-03-23T06:04:27;135.65;;;122.15;;
38226;SDS011;24026;49.446;8.576;2024-03-23T06:06:47;134.57;;;121.05;;
38226;SDS011;24026;49.446;8.576;2024-03-23T06:09:07;134.25;;;120.93;;
38226;SDS011;24026;49.446;8.576;2024-03-23T06:11:28;135.23;;;121.75;;
38226;SDS011;24026;49.446;8.576;2024-03-23T06:13:48;135.07;;;121.68;;
38226;SDS011;24026;49.446;8.576;2024-03-23T06:16:08;134.48;;;121.10;;
38226;SDS011;24026;49.446;8.576;2024-03-23T06:18:30;134.70;;;121.10;;
38226;SDS011;24026;49.446;8.576;2024-03-23T06:20:51;133.82;;;120.43;;
38226;SDS011;24026;49.446;8.576;2024-03-23T06:23:12;133.98;;;120.65;;
38226;SDS011;24026;49.446;8.576;2024-03-23T06:25:34;133.63;;;120.28;;
38226;SDS011;24026;49.446;8.576;2024-03-23T06:27:54;133.40;;;120.15;;
38226;SDS011;24026;49.446;8.576;2024-03-23T06:30:15;133.55;;;120.28;;
38226;SDS011;24026;49.446;8.576;2024-03-23T06:32:35;132.95;;;119.65;;
38226;SDS011;24026;49.446;8.576;2024-03-23T06:34:56;134.80;;;121.20;;
38226;SDS011;24026;49.446;8.576;2024-03-23T06:37:16;132.65;;;119.35;;
38226;SDS011;24026;49.446;8.576;2024-03-23T06:39:37;132.80;;;119.60;;
38226;SDS011;24026;49.446;8.576;2024-03-23T06:41:57;131.65;;;118.50;;
38226;SDS011;24026;49.446;8.576;2024-03-23T06:44:18;133.10;;;119.63;;
38226;SDS011;24026;49.446;8.576;2024-03-23T06:46:39;133.02;;;119.63;;
38226;SDS011;24026;49.446;8.576;2024-03-23T06:48:59;131.52;;;118.38;;
38226;SDS011;24026;49.446;8.576;2024-03-23T06:51:19;132.77;;;119.50;;
38226;SDS011;24026;49.446;8.576;2024-03-23T06:53:40;131.77;;;118.65;;
38226;SDS011;24026;49.446;8.576;2024-03-23T06:56:00;132.55;;;119.35;;
38226;SDS011;24026;49.446;8.576;2024-03-23T06:58:21;131.30;;;118.10;;
38226;SDS011;24026;49.446;8.576;2024-03-23T07:00:44;130.93;;;117.85;;
38226;SDS011;24026;49.446;8.576;2024-03-23T07:03:04;131.70;;;118.53;;
38226;SDS011;24026;49.446;8.576;2024-03-23T07:05:27;132.10;;;118.93;;
38226;SDS011;24026;49.446;8.576;2024-03-23T07:07:47;130.38;;;117.43;;
38226;SDS011;24026;49.446;8.576;2024-03-23T07:10:07;131.07;;;118.03;;
38226;SDS011;24026;49.446;8.576;2024-03-23T07:12:28;132.80;;;119.68;;
38226;SDS011;24026;49.446;8.576;2024-03-23T07:14:48;132.88;;;119.65;;
38226;SDS011;24026;49.446;8.576;2024-03-23T07:17:09;132.27;;;119.13;;
38226;SDS011;24026;49.446;8.576;2024-03-23T07:19:29;130.60;;;117.63;;
38226;SDS011;24026;49.446;8.576;2024-03-23T07:21:49;131.75;;;118.65;;
38226;SDS011;24026;49.446;8.576;2024-03-23T07:24:10;130.43;;;117.22;;
38226;SDS011;24026;49.446;8.576;2024-03-23T07:26:31;131.88;;;118.82;;
38226;SDS011;24026;49.446;8.576;2024-03-23T07:28:51;131.88;;;118.78;;
38226;SDS011;24026;49.446;8.576;2024-03-23T07:31:13;130.02;;;117.07;;
38226;SDS011;24026;49.446;8.576;2024-03-23T07:33:35;130.43;;;117.28;;
38226;SDS011;24026;49.446;8.576;2024-03-23T07:35:56;130.43;;;117.32;;
38226;SDS011;24026;49.446;8.576;2024-03-23T07:38:17;129.45;;;116.45;;
38226;SDS011;24026;49.446;8.576;2024-03-23T07:40:37;131.43;;;118.22;;
38226;SDS011;24026;49.446;8.576;2024-03-23T07:42:57;129.82;;;116.85;;
38226;SDS011;24026;49.446;8.576;2024-03-23T07:45:18;131.60;;;118.47;;
38226;SDS011;24026;49.446;8.576;2024-03-23T07:47:38;133.35;;;120.15;;
38226;SDS011;24026;49.446;8.576;2024-03-23T07:49:58;129.93;;;116.88;;
38226;SDS011;24026;49.446;8.576;2024-03-23T07:52:19;130.55;;;117.47;;
38226;SDS011;24026;49.446;8.576;2024-03-23T07:54:39;131.07;;;117.97;;
38226;SDS011;24026;49.446;8.576;2024-03-23T07:57:00;129.98;;;116.95;;
38226;SDS011;24026;49.446;8.576;2024-03-23T07:59:20;129.75;;;116.82;;
38226;SDS011;24026;49.446;8.576;2024-03-23T08:01:40;129.68;;;116.70;;
38226;SDS011;24026;49.446;8.576;2024-03-23T08:04:01;130.60;;;117.50;;
38226;SDS011;24026;49.446;8.576;2024-03-23T08:06:21;130.45;;;117.15;;
38226;SDS011;24026;49.446;8.576;2024-03-23T08:08:46;130.40;;;117.32;;
38226;SDS011;24026;49.446;8.576;2024-03-23T08:11:07;130.18;;;117.25;;
38226;SDS011;24026;49.446;8.576;2024-03-23T08:13:28;129.93;;;116.95;;
38226;SDS011;24026;49.446;8.576;2024-03-23T08:15:48;130.43;;;117.38;;
38226;SDS011;24026;49.446;8.576;2024-03-23T08:18:12;132.23;;;119.00;;
38226;SDS011;24026;49.446;8.576;2024-03-23T08:20:33;130.68;;;117.57;;
38226;SDS011;24026;49.446;8.576;2024-03-23T08:22:53;129.45;;;116.32;;
38226;SDS011;24026;49.446;8.576;2024-03-23T08:25:14;131.68;;;118.57;;
38226;SDS011;24026;49.446;8.576;2024-03-23T08:27:34;130.05;;;116.95;;
38226;SDS011;24026;49.446;8.576;2024-03-23T08:29:54;130.73;;;117.53;;
38226;SDS011;24026;49.446;8.576;2024-03-23T08:32:15;132.13;;;118.72;;
38226;SDS011;24026;49.446;8.576;2024-03-23T08:34:36;132.07;;;118.78;;
38226;SDS011;24026;49.446;8.576;2024-03-23T08:36:58;132.27;;;119.15;;
38226;SDS011;24026;49.446;8.576;2024-03-23T08:39:19;132.90;;;119.25;;
38226;SDS011;24026;49.446;8.576;2024-03-23T08:41:40;131.35;;;118.00;;
38226;SDS011;24026;49.446;8.576;2024-03-23T08:44:04;133.80;;;120.25;;
38226;SDS011;24026;49.446;8.576;2024-03-23T08:46:25;131.00;;;117.60;;
38226;SDS011;24026;49.446;8.576;2024-03-23T08:48:46;130.20;;;116.93;;
38226;SDS011;24026;49.446;8.576;2024-03-23T08:51:09;130.45;;;117.20;;
38226;SDS011;24026;49.446;8.576;2024-03-23T08:53:30;133.93;;;120.05;;
38226;SDS011;24026;49.446;8.576;2024-03-23T08:55:54;131.73;;;118.35;;
38226;SDS011;24026;49.446;8.576;2024-03-23T08:58:15;131.52;;;118.07;;
38226;SDS011;24026;49.446;8.576;2024-03-23T09:00:39;133.23;;;119.15;;
38226;SDS011;24026;49.446;8.576;2024-03-23T09:02:59;133.73;;;120.15;;
38226;SDS011;24026;49.446;8.576;2024-03-23T09:05:23;132.60;;;118.80;;
38226;SDS011;24026;49.446;8.576;2024-03-23T09:07:44;132.02;;;118.55;;
38226;SDS011;24026;49.446;8.576;2024-03-23T09:10:04;133.10;;;119.65;;
38226;SDS011;24026;49.446;8.576;2024-03-23T09:12:25;134.27;;;120.68;;
38226;SDS011;24026;49.446;8.576;2024-03-23T09:14:46;132.18;;;118.63;;
38226;SDS011;24026;49.446;8.576;2024-03-23T09:17:06;133.43;;;119.97;;
38226;SDS011;24026;49.446;8.576;2024-03-23T09:19:27;132.07;;;118.50;;
38226;SDS011;24026;49.446;8.576;2024-03-23T09:21:49;133.82;;;120.28;;
38226;SDS011;24026;49.446;8.576;2024-03-23T09:24:09;133.52;;;119.78;;
38226;SDS011;24026;49.446;8.576;2024-03-23T09:26:29;132.93;;;119.43;;
38226;SDS011;24026;49.446;8.576;2024-03-23T09:28:50;134.13;;;120.30;;
38226;SDS011;24026;49.446;8.576;2024-03-23T09:31:10;132.32;;;118.78;;
38226;SDS011;24026;49.446;8.576;2024-03-23T09:33:34;133.60;;;119.90;;
38226;SDS011;24026;49.446;8.576;2024-03-23T09:35:55;134.60;;;120.72;;
38226;SDS011;24026;49.446;8.576;2024-03-23T09:38:16;133.27;;;119.68;;
38226;SDS011;24026;49.446;8.576;2024-03-23T09:40:40;132.45;;;118.60;;
38226;SDS011;24026;49.446;8.576;2024-03-23T09:43:01;132.10;;;118.22;;
38226;SDS011;24026;49.446;8.576;2024-03-23T09:45:32;133.18;;;119.47;;
38226;SDS011;24026;49.446;8.576;2024-03-23T09:47:57;132.43;;;119.07;;
38226;SDS011;24026;49.446;8.576;2024-03-23T09:50:17;134.20;;;120.60;;
38226;SDS011;24026;49.446;8.576;2024-03-23T09:52:38;132.35;;;118.50;;
38226;SDS011;24026;49.446;8.576;2024-03-23T09:54:59;134.82;;;120.80;;
38226;SDS011;24026;49.446;8.576;2024-03-23T09:57:19;134.55;;;120.72;;
38226;SDS011;24026;49.446;8.576;2024-03-23T09:59:40;134.98;;;121.13;;
38226;SDS011;24026;49.446;8.576;2024-03-23T10:02:01;143.35;;;128.70;;
38226;SDS011;24026;49.446;8.576;2024-03-23T10:04:40;144.93;;;130.25;;
38226;SDS011;24026;49.446;8.576;2024-03-23T10:07:10;144.82;;;129.93;;
38226;SDS011;24026;49.446;8.576;2024-03-23T10:09:35;140.77;;;126.63;;
38226;SDS011;24026;49.446;8.576;2024-03-23T10:12:07;138.95;;;124.75;;
38226;SDS011;24026;49.446;8.576;2024-03-23T10:14:29;137.60;;;123.50;;
38226;SDS011;24026;49.446;8.576;2024-03-23T10:16:50;140.80;;;126.57;;
38226;SDS011;24026;49.446;8.576;2024-03-23T10:19:12;139.75;;;125.65;;
38226;SDS011;24026;49.446;8.576;2024-03-23T10:21:53;141.70;;;127.22;;
38226;SDS011;24026;49.446;8.576;2024-03-23T10:24:13;140.50;;;126.30;;
38226;SDS011;24026;49.446;8.576;2024-03-23T10:26:34;139.85;;;125.68;;
38226;SDS011;24026;49.446;8.576;2024-03-23T10:28:54;140.55;;;126.18;;
38226;SDS011;24026;49.446;8.576;2024-03-23T10:31:18;139.10;;;124.90;;
38226;SDS011;24026;49.446;8.576;2024-03-23T10:33:47;142.80;;;128.15;;
38226;SDS011;24026;49.446;8.576;2024-03-23T10:36:08;142.57;;;127.70;;
38226;SDS011;24026;49.446;8.576;2024-03-23T10:38:29;140.98;;;126.82;;
38226;SDS011;24026;49.446;8.576;2024-03-23T10:40:50;142.90;;;128.00;;
38226;SDS011;24026;49.446;8.576;2024-03-23T10:43:11;143.32;;;128.70;;
38226;SDS011;24026;49.446;8.576;2024-03-23T10:45:32;147.15;;;131.95;;
38226;SDS011;24026;49.446;8.576;2024-03-23T10:47:52;148.50;;;133.32;;
38226;SDS011;24026;49.446;8.576;2024-03-23T10:50:13;147.43;;;132.48;;
38226;SDS011;24026;49.446;8.576;2024-03-23T10:52:35;150.18;;;134.77;;
38226;SDS011;24026;49.446;8.576;2024-03-23T10:54:56;153.82;;;138.13;;
38226;SDS011;24026;49.446;8.576;2024-03-23T10:57:20;153.85;;;137.98;;
38226;SDS011;24026;49.446;8.576;2024-03-23T11:02:07;155.55;;;139.35;;
38226;SDS011;24026;49.446;8.576;2024-03-23T11:04:40;157.43;;;141.23;;
38226;SDS011;24026;49.446;8.576;2024-03-23T11:07:03;156.57;;;140.32;;
38226;SDS011;24026;49.446;8.576;2024-03-23T11:09:43;156.27;;;139.23;;
38226;SDS011;24026;49.446;8.576;2024-03-23T11:15:02;154.95;;;139.10;;
38226;SDS011;24026;49.446;8.576;2024-03-23T11:17:26;155.48;;;138.63;;
38226;SDS011;24026;49.446;8.576;2024-03-23T11:20:08;156.20;;;139.93;;
38226;SDS011;24026;49.446;8.576;2024-03-23T11:25:26;154.45;;;138.18;;
38226;SDS011;24026;49.446;8.576;2024-03-23T11:27:48;156.05;;;139.82;;
38226;SDS011;24026;49.446;8.576;2024-03-23T11:30:23;155.48;;;139.57;;
38226;SDS011;24026;49.446;8.576;2024-03-23T11:32:49;153.70;;;138.00;;
38226;SDS011;24026;49.446;8.576;2024-03-23T11:35:30;153.60;;;137.80;;
38226;SDS011;24026;49.446;8.576;2024-03-23T11:38:07;152.43;;;136.70;;
38226;SDS011;24026;49.446;8.576;2024-03-23T11:40:28;153.35;;;137.75;;
38226;SDS011;24026;49.446;8.576;2024-03-23T11:42:54;152.82;;;137.05;;
38226;SDS011;24026;49.446;8.576;2024-03-23T11:45:15;154.73;;;138.82;;
38226;SDS011;24026;49.446;8.576;2024-03-23T11:47:38;153.60;;;138.02;;
38226;SDS011;24026;49.446;8.576;2024-03-23T11:49:59;154.15;;;138.63;;
38226;SDS011;24026;49.446;8.576;2024-03-23T11:52:19;154.48;;;138.32;;
38226;SDS011;24026;49.446;8.576;2024-03-23T11:54:39;161.73;;;145.20;;
38226;SDS011;24026;49.446;8.576;2024-03-23T11:57:00;165.40;;;148.20;;
38226;SDS011;24026;49.446;8.576;2024-03-23T11:59:34;155.27;;;139.13;;
38226;SDS011;24026;49.446;8.576;2024-03-23T12:01:56;155.30;;;139.10;;
38226;SDS011;24026;49.446;8.576;2024-03-23T12:04:27;157.35;;;141.15;;
38226;SDS011;24026;49.446;8.576;2024-03-23T12:06:49;160.50;;;144.00;;
38226;SDS011;24026;49.446;8.576;2024-03-23T12:09:10;160.48;;;143.38;;
38226;SDS011;24026;49.446;8.576;2024-03-23T12:11:34;156.65;;;140.75;;
38226;SDS011;24026;49.446;8.576;2024-03-23T12:14:04;155.05;;;139.07;;
38226;SDS011;24026;49.446;8.576;2024-03-23T12:16:25;155.15;;;139.40;;
38226;SDS011;24026;49.446;8.576;2024-03-23T12:18:48;156.75;;;140.77;;
38226;SDS011;24026;49.446;8.576;2024-03-23T12:21:09;156.43;;;140.32;;
38226;SDS011;24026;49.446;8.576;2024-03-23T12:23:30;156.82;;;140.70;;
38226;SDS011;24026;49.446;8.576;2024-03-23T12:25:50;156.00;;;140.13;;
38226;SDS011;24026;49.446;8.576;2024-03-23T12:28:12;157.48;;;141.50;;
38226;SDS011;24026;49.446;8.576;2024-03-23T12:30:38;157.57;;;140.98;;
38226;SDS011;24026;49.446;8.576;2024-03-23T12:32:59;156.63;;;140.57;;
38226;SDS011;24026;49.446;8.576;2024-03-23T12:35:20;156.25;;;140.35;;
38226;SDS011;24026;49.446;8.576;2024-03-23T12:37:40;155.43;;;139.90;;
38226;SDS011;24026;49.446;8.576;2024-03-23T12:40:00;157.25;;;141.43;;
38226;SDS011;24026;49.446;8.576;2024-03-23T12:42:21;155.80;;;139.82;;
38226;SDS011;24026;49.446;8.576;2024-03-23T12:44:41;154.07;;;138.40;;
38226;SDS011;24026;49.446;8.576;2024-03-23T12:47:03;153.32;;;137.95;;
38226;SDS011;24026;49.446;8.576;2024-03-23T12:49:24;154.10;;;138.45;;
38226;SDS011;24026;49.446;8.576;2024-03-23T12:51:47;152.85;;;137.48;;
38226;SDS011;24026;49.446;8.576;2024-03-23T12:54:19;151.90;;;136.13;;
38226;SDS011;24026;49.446;8.576;2024-03-23T12:56:39;152.15;;;136.90;;
38226;SDS011;24026;49.446;8.576;2024-03-23T12:59:00;150.23;;;135.10;;
38226;SDS011;24026;49.446;8.576;2024-03-23T13:01:21;151.40;;;135.70;;
38226;SDS011;24026;49.446;8.576;2024-03-23T13:03:41;149.73;;;134.15;;
38226;SDS011;24026;49.446;8.576;2024-03-23T13:06:03;148.75;;;133.13;;
38226;SDS011;24026;49.446;8.576;2024-03-23T13:08:28;148.68;;;133.35;;
38226;SDS011;24026;49.446;8.576;2024-03-23T13:10:52;147.50;;;132.07;;
38226;SDS011;24026;49.446;8.576;2024-03-23T13:13:30;148.00;;;133.00;;
38226;SDS011;24026;49.446;8.576;2024-03-23T13:15:52;148.57;;;133.45;;
38226;SDS011;24026;49.446;8.576;2024-03-23T13:18:14;145.00;;;130.25;;
38226;SDS011;24026;49.446;8.576;2024-03-23T13:20:35;144.82;;;130.18;;
38226;SDS011;24026;49.446;8.576;2024-03-23T13:22:56;145.35;;;130.32;;
38226;SDS011;24026;49.446;8.576;2024-03-23T13:25:16;144.65;;;129.80;;
38226;SDS011;24026;49.446;8.576;2024-03-23T13:27:39;144.95;;;129.85;;
38226;SDS011;24026;49.446;8.576;2024-03-23T13:30:00;143.07;;;128.40;;
38226;SDS011;24026;49.446;8.576;2024-03-23T13:32:20;143.43;;;128.38;;
38226;SDS011;24026;49.446;8.576;2024-03-23T13:34:41;146.60;;;131.18;;
38226;SDS011;24026;49.446;8.576;2024-03-23T13:37:01;144.95;;;130.27;;
38226;SDS011;24026;49.446;8.576;2024-03-23T13:39:23;144.27;;;129.38;;
38226;SDS011;24026;49.446;8.576;2024-03-23T13:41:45;144.40;;;129.43;;
38226;SDS011;24026;49.446;8.576;2024-03-23T13:44:08;144.95;;;130.25;;
38226;SDS011;24026;49.446;8.576;2024-03-23T13:46:34;145.18;;;130.30;;
38226;SDS011;24026;49.446;8.576;2024-03-23T13:48:54;148.05;;;132.48;;
38226;SDS011;24026;49.446;8.576;2024-03-23T13:51:15;147.25;;;132.13;;
38226;SDS011;24026;49.446;8.576;2024-03-23T13:53:42;145.30;;;130.38;;
38226;SDS011;24026;49.446;8.576;2024-03-23T13:56:03;148.60;;;133.50;;
38226;SDS011;24026;49.446;8.576;2024-03-23T13:58:26;147.10;;;132.00;;
38226;SDS011;24026;49.446;8.576;2024-03-23T14:00:46;146.82;;;131.45;;
38226;SDS011;24026;49.446;8.576;2024-03-23T14:03:09;148.05;;;132.25;;
38226;SDS011;24026;49.446;8.576;2024-03-23T14:05:31;149.45;;;133.60;;
38226;SDS011;24026;49.446;8.576;2024-03-23T14:07:51;150.68;;;135.18;;
38226;SDS011;24026;49.446;8.576;2024-03-23T14:10:12;147.63;;;132.35;;
38226;SDS011;24026;49.446;8.576;2024-03-23T14:12:34;147.70;;;132.30;;
38226;SDS011;24026;49.446;8.576;2024-03-23T14:14:54;148.00;;;132.70;;
38226;SDS011;24026;49.446;8.576;2024-03-23T14:17:15;150.75;;;135.35;;
38226;SDS011;24026;49.446;8.576;2024-03-23T14:19:36;149.52;;;133.93;;
38226;SDS011;24026;49.446;8.576;2024-03-23T14:21:58;149.57;;;133.70;;
38226;SDS011;24026;49.446;8.576;2024-03-23T14:24:18;149.40;;;133.38;;
38226;SDS011;24026;49.446;8.576;2024-03-23T14:26:40;149.40;;;133.40;;